Time;durP1;ratioP1;P1;durP2;ratioP2;P2;SDS_P1;SDS_P2;PMS_P1;PMS_P2;Temp;Humidity;BMP_temperature;BMP_pressure;BME280_temperature;BME280_humidity;BME280_pressure;Samples;Min_cycle;Max_cycle;Signal;HPM_P1;HPM_P2
2022/04/30 00:03:41;;;;;;;7.72;4.15;;;;;;;8.49;73.91;102633.19;10572081;28;20570;-62
2022/04/30 00:09:03;;;;;;;5.75;3.55;;;;;;;8.37;74.48;102633.53;10531342;28;20044;-59
2022/04/30 00:14:26;;;;;;;10.52;4.03;;;;;;;8.30;74.62;102637.16;10498497;28;20048;-59
2022/04/30 00:19:47;;;;;;;9.80;3.95;;;;;;;8.30;74.30;102629.38;10563676;28;20054;-59
2022/04/30 00:25:10;;;;;;;8.38;3.95;;;;;;;8.15;75.45;102632.38;10552582;28;20063;-59
2022/04/30 00:30:31;;;;;;;11.48;4.07;;;;;;;8.15;74.60;102627.19;10512976;28;20054;-60
2022/04/30 00:35:53;;;;;;;5.95;3.63;;;;;;;8.10;75.64;102627.28;10487794;28;20124;-61
2022/04/30 00:41:15;;;;;;;10.95;4.30;;;;;;;8.04;75.54;102619.66;10535015;28;20043;-59
2022/04/30 00:46:37;;;;;;;7.38;4.03;;;;;;;7.92;75.82;102611.31;10554199;28;20082;-60
2022/04/30 00:52:02;;;;;;;9.68;4.22;;;;;;;7.88;75.46;102607.94;10496937;28;20383;-60
2022/04/30 00:57:27;;;;;;;10.73;4.30;;;;;;;7.81;75.85;102601.19;10520512;28;20066;-59
2022/04/30 01:02:48;;;;;;;7.90;4.10;;;;;;;7.73;76.12;102602.28;10528201;28;20047;-60
2022/04/30 01:08:10;;;;;;;11.80;4.22;;;;;;;7.70;75.96;102592.81;10539649;28;20079;-59
2022/04/30 01:13:34;;;;;;;10.52;4.45;;;;;;;7.64;76.98;102589.53;10556282;28;20055;-60
2022/04/30 01:18:56;;;;;;;15.18;4.57;;;;;;;7.66;76.36;102590.34;10536179;28;20048;-60
2022/04/30 01:24:22;;;;;;;8.77;4.60;;;;;;;7.64;77.26;102582.59;10506497;28;20063;-61
2022/04/30 01:29:44;;;;;;;9.75;4.82;;;;;;;7.60;76.90;102577.50;10524949;28;20801;-60
2022/04/30 01:40:47;;;;;;;9.50;4.90;;;;;;;7.50;77.37;102572.56;10526558;28;20050;-60
2022/04/30 01:46:09;;;;;;;10.23;4.95;;;;;;;7.48;76.97;102571.78;10518543;28;20044;-60
2022/04/30 01:51:30;;;;;;;9.13;5.07;;;;;;;7.35;77.66;102568.63;10538194;28;20043;-60
2022/04/30 01:56:52;;;;;;;10.23;5.57;;;;;;;7.19;78.00;102562.09;10555397;28;20074;-60
2022/04/30 02:02:14;;;;;;;9.07;5.30;;;;;;;7.15;77.21;102555.25;10514538;28;20047;-60
2022/04/30 02:07:51;;;;;;;9.32;5.22;;;;;;;7.17;77.34;102552.66;10511621;28;20051;-60
2022/04/30 02:13:15;;;;;;;10.23;4.85;;;;;;;7.17;77.16;102552.66;10518448;28;20044;-60
2022/04/30 02:18:37;;;;;;;9.00;4.90;;;;;;;7.10;77.37;102546.75;10555049;28;20051;-63
2022/04/30 02:23:59;;;;;;;8.20;5.30;;;;;;;7.03;78.34;102534.78;10543015;28;20048;-60
2022/04/30 02:29:21;;;;;;;9.10;4.60;;;;;;;7.00;78.05;102534.84;10521910;28;20036;-60
2022/04/30 02:34:42;;;;;;;9.00;5.18;;;;;;;6.93;78.52;102535.03;10499246;28;20055;-60
2022/04/30 02:40:05;;;;;;;9.10;5.10;;;;;;;6.89;79.36;102526.47;10528557;28;20058;-60
2022/04/30 02:45:27;;;;;;;9.73;4.72;;;;;;;6.94;79.35;102532.41;10486641;28;20052;-60
2022/04/30 02:50:49;;;;;;;10.38;5.43;;;;;;;6.92;79.15;102526.41;10528261;28;20048;-60
2022/04/30 02:56:11;;;;;;;13.68;5.25;;;;;;;6.99;77.46;102517.59;10491150;28;20053;-60
2022/04/30 03:01:33;;;;;;;14.95;5.55;;;;;;;6.99;77.85;102512.41;10546247;28;20513;-60
2022/04/30 03:06:55;;;;;;;8.57;5.18;;;;;;;6.97;79.02;102509.03;10537154;28;20044;-60
2022/04/30 03:12:17;;;;;;;10.88;5.72;;;;;;;7.03;78.57;102505.44;10515637;28;20059;-60
2022/04/30 03:23:19;;;;;;;13.13;6.05;;;;;;;6.96;78.98;102490.91;10568565;28;20067;-60
2022/04/30 03:28:42;;;;;;;12.30;5.45;;;;;;;6.99;78.91;102496.84;10544502;28;20547;-61
2022/04/30 03:34:04;;;;;;;12.10;6.05;;;;;;;6.87;78.60;102491.97;10519327;28;20051;-59
2022/04/30 03:39:25;;;;;;;9.18;5.60;;;;;;;6.81;79.68;102486.94;10517532;28;20052;-60
2022/04/30 03:44:49;;;;;;;10.93;5.93;;;;;;;6.78;79.46;102481.81;10569858;28;20536;-60
2022/04/30 03:50:10;;;;;;;10.90;6.70;;;;;;;6.75;80.72;102481.03;10555017;28;20035;-59
2022/04/30 03:55:32;;;;;;;9.57;5.80;;;;;;;6.80;80.50;102490.41;10522302;28;20048;-59
2022/04/30 04:00:54;;;;;;;12.50;5.85;;;;;;;6.81;80.06;102497.31;10531562;28;20066;-59
2022/04/30 04:06:19;;;;;;;11.68;6.25;;;;;;;6.74;80.93;102495.72;10528636;28;20044;-60
2022/04/30 04:11:41;;;;;;;12.60;5.82;;;;;;;6.71;80.96;102490.59;10537449;28;20056;-60
2022/04/30 04:22:44;;;;;;;10.15;5.95;;;;;;;6.78;80.53;102499.97;10552942;28;20429;-59
2022/04/30 04:28:06;;;;;;;15.90;6.93;;;;;;;6.78;80.19;102502.56;10506908;28;20159;-59
2022/04/30 04:33:28;;;;;;;15.27;6.75;;;;;;;6.91;79.88;102503.13;10533742;28;20047;-59
2022/04/30 04:38:49;;;;;;;11.60;7.07;;;;;;;6.99;79.23;102496.84;10536090;28;20048;-61
2022/04/30 04:44:11;;;;;;;12.25;6.55;;;;;;;7.00;79.56;102503.75;10526707;28;20055;-62
2022/04/30 04:49:33;;;;;;;11.77;6.63;;;;;;;6.99;79.30;102502.03;10549393;28;20044;-61
2022/04/30 04:54:55;;;;;;;22.60;7.10;;;;;;;6.88;80.89;102498.84;10529557;28;20048;-61
2022/04/30 05:00:16;;;;;;;10.18;5.90;;;;;;;6.86;80.66;102508.41;10515377;28;20035;-60
2022/04/30 05:05:38;;;;;;;16.48;7.18;;;;;;;6.89;80.02;102510.09;10524018;28;20486;-61
2022/04/30 05:11:00;;;;;;;14.00;7.15;;;;;;;6.85;80.36;102509.28;10537512;28;20040;-59
2022/04/30 05:16:22;;;;;;;12.50;6.93;;;;;;;6.91;80.99;102510.91;10525020;28;20043;-59
2022/04/30 05:21:43;;;;;;;12.85;7.28;;;;;;;6.93;81.76;102514.28;10527813;28;20055;-59
2022/04/30 05:27:08;;;;;;;15.60;7.30;;;;;;;6.97;82.06;102510.75;10534892;28;20048;-61
2022/04/30 05:32:29;;;;;;;13.27;8.27;;;;;;;7.05;82.64;102517.47;10512611;28;20044;-59
2022/04/30 05:37:51;;;;;;;16.42;7.85;;;;;;;7.20;81.49;102517.09;10523942;28;20051;-60
2022/04/30 05:43:13;;;;;;;14.68;7.47;;;;;;;7.33;80.95;102513.31;10529223;28;20134;-60
2022/04/30 05:48:34;;;;;;;17.42;7.55;;;;;;;7.49;80.88;102525.03;10500406;28;20363;-60
2022/04/30 05:53:57;;;;;;;13.20;7.75;;;;;;;7.65;80.97;102515.97;10533878;28;20051;-60
2022/04/30 05:59:18;;;;;;;16.67;8.70;;;;;;;7.82;80.85;102517.22;10543803;28;20082;-59
2022/04/30 06:04:40;;;;;;;16.30;7.97;;;;;;;7.98;82.27;102520.28;10531040;28;20056;-60
2022/04/30 06:10:04;;;;;;;14.88;8.00;;;;;;;8.12;82.29;102519.00;10533747;28;20067;-60
2022/04/30 06:15:26;;;;;;;17.98;8.90;;;;;;;8.28;80.04;102515.13;10506661;28;20059;-59
2022/04/30 06:20:47;;;;;;;17.02;8.13;;;;;;;8.46;81.08;102514.59;10567809;28;20078;-60
2022/04/30 06:26:09;;;;;;;12.23;7.57;;;;;;;8.60;80.84;102523.69;10530941;28;20063;-60
2022/04/30 06:31:31;;;;;;;13.90;8.15;;;;;;;8.77;81.37;102520.59;10503313;28;20056;-59
2022/04/30 06:36:52;;;;;;;12.23;7.47;;;;;;;8.98;80.93;102526.00;10539333;28;20431;-61
2022/04/30 06:42:14;;;;;;;16.13;7.60;;;;;;;9.32;80.29;102517.97;10529768;28;20082;-60
2022/04/30 06:47:36;;;;;;;11.88;6.65;;;;;;;9.60;79.65;102515.25;10566564;28;20052;-59
2022/04/30 06:58:44;;;;;;;9.00;6.20;;;;;;;9.90;75.22;102513.34;10508064;28;20051;-60
2022/04/30 07:04:06;;;;;;;9.43;6.38;;;;;;;9.94;76.52;102507.13;10536081;28;20055;-60
2022/04/30 07:09:28;;;;;;;17.45;6.50;;;;;;;10.04;76.31;102509.41;10496865;28;20044;-59
2022/04/30 07:14:50;;;;;;;13.15;5.93;;;;;;;10.25;75.96;102497.34;10531093;28;20670;-58
2022/04/30 07:20:12;;;;;;;10.13;4.55;;;;;;;10.50;75.44;102506.81;10549148;28;20039;-60
2022/04/30 07:25:33;;;;;;;7.47;4.65;;;;;;;10.56;73.85;102512.66;10522987;28;20406;-59
2022/04/30 07:30:55;;;;;;;11.73;4.15;;;;;;;10.62;72.90;102519.41;10513345;28;20051;-60
2022/04/30 07:36:18;;;;;;;9.02;3.72;;;;;;;10.66;72.08;102521.81;10530810;28;20050;-60
2022/04/30 07:41:40;;;;;;;6.32;3.70;;;;;;;10.59;72.12;102516.91;10511381;28;20041;-60
2022/04/30 07:47:02;;;;;;;6.25;2.90;;;;;;;10.62;71.42;102515.00;10529546;28;20052;-59
2022/04/30 07:52:25;;;;;;;15.77;3.42;;;;;;;10.70;70.67;102510.38;10495968;28;20462;-59
2022/04/30 07:57:47;;;;;;;7.15;3.60;;;;;;;10.73;70.09;102522.44;10510292;28;20052;-59
2022/04/30 08:03:08;;;;;;;7.57;3.58;;;;;;;10.84;70.74;102510.69;10540029;28;20134;-61
2022/04/30 08:08:30;;;;;;;5.55;3.33;;;;;;;11.00;70.28;102517.00;10488532;28;20392;-60
2022/04/30 08:13:52;;;;;;;4.72;2.80;;;;;;;11.22;68.91;102507.41;10498493;28;20048;-60
2022/04/30 08:19:15;;;;;;;5.22;2.88;;;;;;;11.33;68.27;102507.84;10493799;28;20044;-60
2022/04/30 08:24:37;;;;;;;4.40;2.13;;;;;;;11.48;66.70;102510.66;10492773;28;20046;-60
2022/04/30 08:29:58;;;;;;;5.78;2.35;;;;;;;11.70;66.30;102510.63;10558564;28;20125;-61
2022/04/30 08:35:20;;;;;;;4.55;2.85;;;;;;;11.96;66.79;102506.00;10552026;28;20056;-60
2022/04/30 08:41:01;;;;;;;5.85;2.60;;;;;;;11.97;66.58;102501.63;10531707;28;20036;-61
2022/04/30 08:46:23;;;;;;;6.13;2.67;;;;;;;11.83;67.03;102507.47;10499914;28;20051;-60
2022/04/30 08:51:45;;;;;;;5.30;2.83;;;;;;;11.78;67.40;102503.34;10491999;28;20048;-60
2022/04/30 08:57:07;;;;;;;4.45;1.92;;;;;;;11.71;67.35;102507.13;10503446;28;20059;-61
2022/04/30 09:02:28;;;;;;;3.22;1.60;;;;;;;11.83;64.38;102506.59;10501916;28;20521;-61
2022/04/30 09:07:58;;;;;;;4.03;1.55;;;;;;;11.81;64.37;102503.19;10495272;28;20070;-60
2022/04/30 09:13:20;;;;;;;4.13;2.00;;;;;;;11.80;65.70;102507.56;10507513;28;20056;-60
2022/04/30 09:18:46;;;;;;;3.47;1.77;;;;;;;11.77;66.85;102512.09;10555295;28;20056;-58
2022/04/30 09:24:08;;;;;;;3.97;1.90;;;;;;;11.83;66.48;102493.53;10489551;28;20502;-59
2022/04/30 09:29:29;;;;;;;4.20;1.10;;;;;;;11.80;65.72;102491.03;10507963;28;20135;-59
2022/04/30 09:40:32;;;;;;;4.43;1.40;;;;;;;12.07;65.26;102482.84;10528249;28;20082;-60
2022/04/30 09:45:59;;;;;;;2.95;1.27;;;;;;;12.13;61.75;102479.13;10495433;28;20525;-60
2022/04/30 09:57:07;;;;;;;5.45;1.83;;;;;;;12.26;63.55;102477.66;10485312;28;20055;-59
2022/04/30 10:02:31;;;;;;;5.05;2.13;;;;;;;12.33;63.46;102472.06;10535573;28;20048;-60
2022/04/30 10:07:54;;;;;;;8.00;1.80;;;;;;;12.35;62.76;102472.84;10516578;28;20056;-59
2022/04/30 10:13:31;;;;;;;2.72;1.70;;;;;;;12.38;61.96;102474.47;10508358;28;20051;-60
2022/04/30 10:19:11;;;;;;;2.75;1.40;;;;;;;12.39;62.31;102476.16;10491771;28;20045;-59
2022/04/30 10:24:33;;;;;;;2.55;1.48;;;;;;;12.38;63.28;102471.84;10485525;28;20048;-59
2022/04/30 10:29:57;;;;;;;3.53;1.58;;;;;;;12.46;63.67;102472.38;10488523;28;20036;-59
2022/04/30 10:35:34;;;;;;;3.25;1.00;;;;;;;12.56;60.53;102464.84;10491668;28;20044;-60
2022/04/30 10:40:58;;;;;;;2.67;1.10;;;;;;;12.92;61.86;102457.06;10526442;28;20052;-60
2022/04/30 10:46:23;;;;;;;2.22;1.00;;;;;;;13.01;62.16;102452.25;10526148;28;20055;-60
2022/04/30 10:51:45;;;;;;;1.40;1.00;;;;;;;13.22;60.42;102448.56;10531543;28;20040;-60
2022/04/30 10:57:09;;;;;;;2.30;0.82;;;;;;;13.39;59.86;102448.56;10532887;28;20054;-60
2022/04/30 11:02:32;;;;;;;2.83;0.80;;;;;;;13.39;60.68;102443.31;10491711;28;20045;-59
2022/04/30 11:07:54;;;;;;;2.22;1.20;;;;;;;13.28;60.84;102440.41;10492262;28;20118;-60
2022/04/30 11:13:16;;;;;;;2.60;1.20;;;;;;;13.42;59.83;102435.31;10535054;28;20044;-60
2022/04/30 11:18:38;;;;;;;1.15;0.98;;;;;;;13.85;59.84;102432.16;10546723;28;20044;-59
2022/04/30 11:24:01;;;;;;;1.50;1.20;;;;;;;13.94;60.47;102426.47;10521487;28;20486;-61
2022/04/30 11:29:23;;;;;;;1.60;0.88;;;;;;;14.57;57.95;102424.69;10488459;28;20044;-60
2022/04/30 11:34:45;;;;;;;1.17;0.60;;;;;;;14.64;55.65;102418.19;10490089;28;20040;-61
2022/04/30 11:40:08;;;;;;;1.00;0.80;;;;;;;15.12;57.87;102418.00;10506168;28;20032;-61
2022/04/30 11:45:31;;;;;;;2.03;0.80;;;;;;;15.42;56.61;102415.38;10533325;28;20079;-60
2022/04/30 11:50:54;;;;;;;3.25;0.80;;;;;;;15.38;57.66;102422.63;10512513;28;20047;-61
2022/04/30 11:56:16;;;;;;;1.10;0.73;;;;;;;15.50;58.23;102414.00;10562281;28;20040;-60
2022/04/30 12:01:39;;;;;;;2.80;0.82;;;;;;;15.31;56.01;102418.63;10507928;28;20055;-60
2022/04/30 12:07:06;;;;;;;1.35;0.75;;;;;;;15.20;55.46;102410.53;10508183;28;20052;-64
2022/04/30 12:12:28;;;;;;;3.20;0.80;;;;;;;15.19;57.56;102414.06;10509101;28;20047;-60
2022/04/30 12:29:35;;;;;;;2.00;0.70;;;;;;;15.52;58.34;102401.63;10535983;27;20528;-60
2022/04/30 12:34:57;;;;;;;3.67;0.90;;;;;;;15.28;57.16;102397.81;10558188;27;20052;-60
2022/04/30 12:40:19;;;;;;;2.97;0.70;;;;;;;15.21;59.49;102393.81;10534238;28;20048;-60
2022/04/30 12:45:45;;;;;;;3.85;1.08;;;;;;;15.21;55.75;102385.94;10509271;28;20138;-60
2022/04/30 12:51:06;;;;;;;1.10;0.60;;;;;;;15.04;59.36;102378.19;10518023;28;20045;-61
2022/04/30 12:56:29;;;;;;;0.90;0.90;;;;;;;15.09;58.40;102377.91;10509244;28;20044;-60
2022/04/30 13:01:52;;;;;;;1.98;1.20;;;;;;;15.10;58.13;102369.97;10512664;28;20044;-61
2022/04/30 13:07:13;;;;;;;2.63;1.00;;;;;;;15.13;59.21;102369.78;10519369;28;20039;-60
2022/04/30 13:18:16;;;;;;;2.13;1.02;;;;;;;15.32;57.21;102367.78;10508910;28;20058;-61
2022/04/30 13:23:37;;;;;;;2.42;1.00;;;;;;;15.29;57.71;102362.69;10518977;28;20048;-61
2022/04/30 13:28:59;;;;;;;1.73;1.00;;;;;;;15.42;58.71;102361.06;10486804;28;20040;-60
2022/04/30 13:34:21;;;;;;;2.38;0.90;;;;;;;15.28;57.22;102355.78;10502382;28;20048;-65
2022/04/30 13:39:43;;;;;;;2.88;0.90;;;;;;;15.19;57.98;102351.03;10503439;28;20047;-60
2022/04/30 13:45:06;;;;;;;2.97;1.17;;;;;;;15.27;57.93;102351.47;10499605;28;20052;-61
2022/04/30 13:50:27;;;;;;;2.10;0.90;;;;;;;15.30;53.73;102348.63;10509271;28;20036;-61
2022/04/30 13:55:49;;;;;;;5.60;1.20;;;;;;;15.22;56.66;102350.84;10493268;28;20052;-61
2022/04/30 14:01:12;;;;;;;2.30;1.05;;;;;;;15.11;58.01;102348.03;10499141;28;20059;-61
2022/04/30 14:06:34;;;;;;;3.40;1.30;;;;;;;15.09;58.41;102357.75;10501901;28;20155;-61
2022/04/30 14:11:56;;;;;;;1.38;1.20;;;;;;;15.06;57.76;102352.69;10499066;28;20047;-60
2022/04/30 14:22:58;;;;;;;1.48;0.98;;;;;;;14.97;57.19;102347.13;10509261;28;20048;-61
2022/04/30 14:28:20;;;;;;;2.65;1.40;;;;;;;14.88;57.77;102345.88;10513195;28;20067;-61
2022/04/30 14:33:41;;;;;;;4.50;1.42;;;;;;;14.77;57.91;102345.66;10527835;28;20064;-60
2022/04/30 14:39:03;;;;;;;5.25;1.60;;;;;;;14.62;58.54;102343.91;10500516;28;20078;-61
2022/04/30 14:44:25;;;;;;;3.03;1.50;;;;;;;14.51;58.40;102345.44;10505797;28;20051;-60
2022/04/30 14:49:47;;;;;;;4.22;1.75;;;;;;;14.43;59.19;102345.88;10510157;28;20039;-61
2022/04/30 14:55:09;;;;;;;4.30;1.63;;;;;;;14.33;58.60;102336.00;10509012;28;20066;-61
2022/04/30 15:00:30;;;;;;;5.10;1.83;;;;;;;14.20;59.43;102339.38;10493134;28;20040;-61
2022/04/30 15:05:52;;;;;;;3.03;1.90;;;;;;;14.13;58.96;102348.50;10516469;28;20059;-60
2022/04/30 15:11:14;;;;;;;4.32;1.98;;;;;;;14.06;60.13;102344.50;10511339;28;20067;-60
2022/04/30 15:16:35;;;;;;;3.15;1.77;;;;;;;13.90;59.37;102348.91;10509770;28;20052;-61
2022/04/30 15:21:57;;;;;;;4.30;1.90;;;;;;;13.81;60.19;102341.53;10523558;28;20045;-60
2022/04/30 15:27:19;;;;;;;3.13;1.80;;;;;;;13.83;60.03;102337.91;10522649;28;20059;-61
2022/04/30 15:32:40;;;;;;;2.75;1.80;;;;;;;13.82;60.08;102332.75;10526135;28;20058;-61
2022/04/30 15:38:03;;;;;;;4.55;2.20;;;;;;;13.71;58.81;102329.81;10526403;28;20048;-61
2022/04/30 15:43:24;;;;;;;3.03;2.10;;;;;;;13.65;60.38;102327.56;10521790;28;20044;-61
2022/04/30 15:54:32;;;;;;;4.63;2.13;;;;;;;13.48;56.87;102322.34;10531371;28;20048;-60
2022/04/30 15:59:54;;;;;;;3.28;1.73;;;;;;;13.41;59.14;102317.53;10553519;28;20142;-60
2022/04/30 16:05:15;;;;;;;2.25;2.05;;;;;;;13.37;59.43;102315.97;10553522;28;20051;-59
2022/04/30 16:10:37;;;;;;;3.17;2.50;;;;;;;13.42;60.24;102301.72;10506627;28;20052;-60
2022/04/30 16:16:00;;;;;;;2.60;2.28;;;;;;;13.39;60.81;102301.88;10492226;28;20044;-59
2022/04/30 16:21:21;;;;;;;4.50;2.70;;;;;;;13.28;61.77;102298.97;10487394;28;20059;-59
2022/04/30 16:26:43;;;;;;;9.25;3.67;;;;;;;13.27;60.88;102297.28;10492457;28;20044;-59
2022/04/30 16:32:05;;;;;;;4.72;2.10;;;;;;;13.26;60.25;102300.81;10497866;28;20267;-62
2022/04/30 16:37:27;;;;;;;3.85;2.20;;;;;;;13.24;60.01;102294.84;10509387;27;20048;-60
2022/04/30 16:42:48;;;;;;;2.20;1.80;;;;;;;13.21;60.16;102296.75;10491871;28;20510;-60
2022/04/30 16:48:10;;;;;;;3.92;2.13;;;;;;;13.16;60.88;102299.59;10492277;28;20405;-59
2022/04/30 16:53:32;;;;;;;4.10;2.15;;;;;;;13.18;60.98;102295.16;10491276;28;20055;-59
2022/04/30 16:58:53;;;;;;;3.42;1.92;;;;;;;13.05;59.75;102301.06;10489974;28;20051;-59
2022/04/30 17:04:15;;;;;;;3.00;2.00;;;;;;;13.01;59.51;102289.09;10501301;28;20067;-59
2022/04/30 17:09:37;;;;;;;5.93;2.60;;;;;;;12.98;60.57;102284.84;10492607;28;20048;-60
2022/04/30 17:15:03;;;;;;;4.45;2.38;;;;;;;12.99;60.27;102286.53;10471471;28;20403;-59
2022/04/30 17:20:28;;;;;;;4.55;2.70;;;;;;;12.94;60.64;102287.69;10450134;28;20052;-59
2022/04/30 17:25:50;;;;;;;7.07;3.30;;;;;;;12.99;61.07;102288.31;10441831;28;20044;-59
2022/04/30 17:42:33;;;;;;;4.60;2.72;;;;;;;12.85;61.29;102291.59;10473987;28;20060;-59
2022/04/30 17:47:55;;;;;;;5.50;2.80;;;;;;;12.80;61.55;102296.22;10473268;28;20556;-59
2022/04/30 17:53:17;;;;;;;5.88;3.95;;;;;;;12.74;62.28;102295.66;10468605;28;20060;-60
2022/04/30 17:58:38;;;;;;;4.00;2.80;;;;;;;12.70;62.20;102304.63;10486634;28;20572;-59
2022/04/30 18:04:00;;;;;;;4.90;2.90;;;;;;;12.61;62.27;102295.44;10461870;28;20482;-59
2022/04/30 18:09:22;;;;;;;5.47;2.80;;;;;;;12.61;62.17;102305.03;10488965;28;20060;-59
2022/04/30 18:14:47;;;;;;;6.05;3.08;;;;;;;12.55;62.16;102310.59;10486395;28;20051;-59
2022/04/30 18:20:10;;;;;;;5.70;2.75;;;;;;;12.52;62.10;102305.50;10495623;28;20048;-62
2022/04/30 18:25:34;;;;;;;9.32;3.00;;;;;;;12.49;62.32;102311.75;10488770;28;20560;-62
2022/04/30 18:30:56;;;;;;;6.10;2.65;;;;;;;12.46;63.00;102320.66;10501882;28;20053;-63
2022/04/30 18:36:19;;;;;;;4.97;2.40;;;;;;;12.44;63.25;102323.38;10483320;28;20051;-63
2022/04/30 18:41:40;;;;;;;5.00;2.75;;;;;;;12.38;63.25;102325.41;10454396;28;20052;-63
2022/04/30 18:47:02;;;;;;;3.58;2.70;;;;;;;12.35;63.34;102322.94;10483408;28;20205;-64
2022/04/30 18:52:24;;;;;;;5.88;2.90;;;;;;;12.29;63.32;102329.31;10490815;28;20131;-61
2022/04/30 19:03:30;;;;;;;7.95;3.78;;;;;;;12.20;64.85;102334.13;10466964;28;20430;-61
2022/04/30 19:08:52;;;;;;;7.90;4.20;;;;;;;12.15;65.07;102342.16;10460211;28;20505;-61
2022/04/30 19:14:14;;;;;;;7.43;3.78;;;;;;;12.07;64.94;102340.88;10478428;28;20045;-62
2022/04/30 19:19:36;;;;;;;7.53;3.85;;;;;;;11.94;65.46;102342.31;10486467;28;20052;-62
2022/04/30 19:24:57;;;;;;;5.07;3.85;;;;;;;11.80;66.16;102345.59;10478687;28;20110;-62
2022/04/30 19:30:19;;;;;;;9.05;4.28;;;;;;;11.64;66.56;102333.28;10471013;28;20146;-61
2022/04/30 19:35:40;;;;;;;6.15;4.05;;;;;;;11.52;67.05;102346.84;10479148;28;20051;-62
2022/04/30 19:41:02;;;;;;;8.13;4.43;;;;;;;11.48;67.05;102348.75;10466119;28;20051;-62
2022/04/30 19:46:24;;;;;;;9.40;4.53;;;;;;;11.41;66.92;102349.09;10489213;28;20051;-62
2022/04/30 19:51:46;;;;;;;8.02;4.80;;;;;;;11.32;67.03;102346.88;10494448;28;20048;-62
2022/04/30 19:57:08;;;;;;;8.98;5.10;;;;;;;11.24;67.57;102346.34;10484711;28;20041;-62
2022/04/30 20:02:31;;;;;;;10.85;5.15;;;;;;;11.15;68.29;102349.38;10496298;28;20044;-62
2022/04/30 20:07:53;;;;;;;8.95;5.10;;;;;;;11.07;68.35;102348.00;10482652;28;20044;-62
2022/04/30 20:18:55;;;;;;;11.05;5.80;;;;;;;10.96;68.92;102345.81;10485792;28;20715;-63
2022/04/30 20:24:17;;;;;;;8.68;5.78;;;;;;;10.91;69.34;102354.75;10489671;28;20055;-62
2022/04/30 20:29:38;;;;;;;12.70;6.05;;;;;;;10.81;69.20;102343.84;10496747;28;20086;-61
2022/04/30 20:40:40;;;;;;;8.88;6.85;;;;;;;10.65;70.18;102341.94;10487992;28;20278;-63
2022/04/30 20:46:03;;;;;;;10.50;6.55;;;;;;;10.61;70.67;102346.44;10502819;28;20386;-63
2022/04/30 20:51:29;;;;;;;12.18;6.80;;;;;;;10.55;70.11;102340.63;10475819;28;20134;-64
2022/04/30 20:56:51;;;;;;;11.23;7.15;;;;;;;10.52;70.37;102344.19;10468767;28;20037;-63
2022/04/30 21:02:14;;;;;;;12.30;7.80;;;;;;;10.44;70.88;102342.78;10499728;28;20040;-63
2022/04/30 21:07:38;;;;;;;15.13;8.25;;;;;;;10.40;70.51;102350.81;10470399;28;20513;-63
2022/04/30 21:13:00;;;;;;;12.82;7.78;;;;;;;10.35;70.27;102348.38;10457111;28;20052;-62
2022/04/30 21:18:21;;;;;;;14.13;8.32;;;;;;;10.31;71.10;102344.19;10454895;28;20043;-63
2022/04/30 21:23:43;;;;;;;14.70;9.45;;;;;;;10.24;70.56;102349.72;10521238;28;20497;-64
2022/04/30 21:29:09;;;;;;;22.33;10.05;;;;;;;10.17;70.67;102340.44;10488064;28;20048;-65
2022/04/30 21:34:30;;;;;;;;;;;;;;;10.08;75.97;102343.38;10490179;28;20048;-65
2022/04/30 21:39:52;;;;;;;24.75;9.38;;;;;;;10.03;71.42;102345.34;10480072;28;20354;-62
2022/04/30 21:45:14;;;;;;;18.73;10.07;;;;;;;9.99;71.46;102338.53;10462795;28;20602;-63
2022/04/30 21:50:35;;;;;;;19.60;10.13;;;;;;;9.95;71.86;102336.91;10471916;28;20047;-63
2022/04/30 22:01:51;;;;;;;16.58;9.40;;;;;;;9.77;73.16;102327.19;10482155;28;20044;-63
2022/04/30 22:07:14;;;;;;;18.80;10.57;;;;;;;9.73;71.95;102330.81;10468580;28;20044;-63
2022/04/30 22:12:38;;;;;;;19.20;10.68;;;;;;;9.65;72.44;102319.84;10477786;28;20359;-63
2022/04/30 22:18:01;;;;;;;20.40;10.80;;;;;;;9.62;72.65;102322.53;10468995;28;20037;-63
2022/04/30 22:23:23;;;;;;;20.83;11.50;;;;;;;9.53;72.50;102320.28;10476342;28;20044;-63
2022/04/30 22:28:45;;;;;;;19.73;11.20;;;;;;;9.45;72.41;102319.72;10470374;28;20036;-63
2022/04/30 22:34:07;;;;;;;18.98;11.38;;;;;;;9.39;72.85;102319.09;10475212;28;20102;-63
2022/04/30 22:45:10;;;;;;;20.00;11.20;;;;;;;9.27;73.23;102320.38;10483164;28;20469;-63
2022/04/30 22:50:31;;;;;;;20.50;11.48;;;;;;;9.18;73.21;102310.28;10471342;28;20546;-63
2022/04/30 22:55:53;;;;;;;23.58;12.05;;;;;;;9.09;73.76;102318.41;10469811;28;20539;-62
2022/04/30 23:01:14;;;;;;;17.20;10.95;;;;;;;9.07;73.46;102321.97;10479643;28;20055;-62
2022/04/30 23:06:36;;;;;;;18.92;11.63;;;;;;;8.99;73.59;102316.19;10480000;28;20074;-62
2022/04/30 23:11:58;;;;;;;20.52;11.63;;;;;;;8.96;74.39;102311.06;10470257;28;20446;-63
2022/04/30 23:17:19;;;;;;;21.30;11.77;;;;;;;8.93;74.03;102314.63;10486713;28;20059;-63
2022/04/30 23:22:41;;;;;;;17.23;11.25;;;;;;;8.87;74.19;102319.19;10491710;28;20041;-63
2022/04/30 23:28:05;;;;;;;15.48;11.15;;;;;;;8.78;74.82;102315.16;10484903;28;20505;-63
2022/04/30 23:33:27;;;;;;;16.67;11.43;;;;;;;8.69;74.62;102312.88;10514423;28;20036;-63
2022/04/30 23:38:49;;;;;;;17.85;12.05;;;;;;;8.65;74.96;102313.88;10504651;28;20048;-62
2022/04/30 23:44:10;;;;;;;16.00;11.55;;;;;;;8.57;74.94;102314.19;10489636;28;20438;-62
2022/04/30 23:49:34;;;;;;;19.52;11.60;;;;;;;8.48;75.02;102310.13;10524675;28;20509;-63
2022/04/30 23:54:55;;;;;;;18.25;11.80;;;;;;;8.41;76.17;102312.97;10495237;28;20063;-63
